Time;durP1;ratioP1;P1;durP2;ratioP2;P2;SDS_P1;SDS_P2;PMS_P1;PMS_P2;Temp;Humidity;BMP_temperature;BMP_pressure;BME280_temperature;BME280_humidity;BME280_pressure;Samples;Min_cycle;Max_cycle;Signal;HPM_P1;HPM_P2
2022/10/12 00:00:06;;;;;;;12.20;7.50;;;;;;;26.30;21.27;99119.38;5113789;27;20035;-78
2022/10/12 00:02:32;;;;;;;12.35;8.10;;;;;;;26.21;21.32;99119.13;5111551;28;20061;-78
2022/10/12 00:04:58;;;;;;;11.18;8.73;;;;;;;26.19;21.22;99119.53;5101308;28;20039;-78
2022/10/12 00:07:24;;;;;;;11.98;8.27;;;;;;;26.38;21.23;99115.22;5112633;28;20114;-78
2022/10/12 00:09:50;;;;;;;10.70;7.25;;;;;;;26.84;20.49;99118.16;5114621;28;20062;-78
2022/10/12 00:12:16;;;;;;;10.98;7.93;;;;;;;27.06;20.29;99115.75;5107642;28;20032;-78
2022/10/12 00:14:42;;;;;;;11.48;7.22;;;;;;;27.19;20.24;99117.53;5102599;28;20043;-79
2022/10/12 00:17:08;;;;;;;9.88;7.38;;;;;;;27.06;20.12;99118.59;5096560;28;20028;-78
2022/10/12 00:19:35;;;;;;;11.95;7.93;;;;;;;27.17;19.86;99116.34;5111351;28;20039;-78
2022/10/12 00:22:01;;;;;;;11.00;7.25;;;;;;;27.29;19.82;99119.38;5113207;28;20023;-78
2022/10/12 00:24:27;;;;;;;10.77;7.68;;;;;;;27.24;19.96;99119.06;5114939;28;20035;-78
2022/10/12 00:26:53;;;;;;;11.52;7.75;;;;;;;27.05;20.11;99125.47;5110964;28;20057;-78
2022/10/12 00:29:19;;;;;;;10.50;7.70;;;;;;;26.88;20.23;99118.09;5113416;28;20032;-78
2022/10/12 00:31:45;;;;;;;10.73;7.57;;;;;;;26.69;20.47;99122.41;5110206;28;20130;-79
2022/10/12 00:34:11;;;;;;;8.93;6.43;;;;;;;26.99;19.94;99115.88;5108361;28;20478;-78
2022/10/12 00:36:37;;;;;;;8.07;6.22;;;;;;;27.23;19.85;99111.84;5105932;28;20103;-78
2022/10/12 00:39:06;;;;;;;10.73;6.95;;;;;;;27.36;19.71;99116.41;5111811;27;20097;-78
2022/10/12 00:41:36;;;;;;;10.15;6.53;;;;;;;27.21;19.88;99112.25;5112906;28;20108;-78
2022/10/12 00:44:02;;;;;;;9.70;6.65;;;;;;;26.69;20.13;99111.94;5105046;28;20042;-78
2022/10/12 00:46:43;;;;;;;9.68;7.10;;;;;;;26.49;20.63;99111.03;5106902;28;20035;-78
2022/10/12 00:49:15;;;;;;;9.63;6.68;;;;;;;26.57;20.33;99109.72;5107623;28;20569;-78
2022/10/12 00:51:44;;;;;;;10.77;6.93;;;;;;;26.76;20.30;99115.88;5110755;28;20115;-78
2022/10/12 00:54:21;;;;;;;8.75;6.45;;;;;;;26.81;20.12;99116.19;5098928;28;20062;-78
2022/10/12 00:56:49;;;;;;;9.40;6.90;;;;;;;26.88;20.37;99116.09;5098848;28;20063;-78
2022/10/12 00:59:22;;;;;;;8.30;6.38;;;;;;;27.17;19.93;99113.53;5096828;28;20031;-78
2022/10/12 01:01:49;;;;;;;9.70;6.40;;;;;;;27.19;19.79;99117.53;5109475;28;20117;-79
2022/10/12 01:04:15;;;;;;;10.27;7.53;;;;;;;27.04;19.61;99116.19;5100115;28;20040;-79
2022/10/12 01:06:41;;;;;;;9.90;7.47;;;;;;;26.47;20.57;99110.66;5096465;28;20062;-79
2022/10/12 01:09:07;;;;;;;10.30;7.15;;;;;;;26.29;20.67;99117.78;5110445;28;20066;-79
2022/10/12 01:11:33;;;;;;;12.45;8.57;;;;;;;26.69;20.42;99122.41;5103703;28;20036;-79
2022/10/12 01:13:59;;;;;;;12.50;8.13;;;;;;;26.99;20.35;99118.72;5108395;28;20084;-79
2022/10/12 01:16:52;;;;;;;9.25;6.43;;;;;;;27.16;19.96;99120.44;5110592;28;20439;-79
2022/10/12 01:19:23;;;;;;;8.43;6.20;;;;;;;26.97;20.20;99118.34;5092784;28;20059;-79
2022/10/12 01:22:06;;;;;;;7.88;6.43;;;;;;;26.91;20.18;99114.44;5108214;28;20028;-79
2022/10/12 01:24:53;;;;;;;10.32;7.53;;;;;;;26.50;20.80;99114.66;5110347;28;20046;-79
2022/10/12 01:27:34;;;;;;;10.18;6.85;;;;;;;26.18;21.18;99109.50;5110446;28;20036;-79
2022/10/12 01:30:13;;;;;;;11.68;6.68;;;;;;;26.13;21.32;99112.78;5109601;28;20126;-78
2022/10/12 01:33:01;;;;;;;9.98;6.25;;;;;;;26.15;21.21;99112.34;5094220;28;20044;-78
2022/10/12 01:35:49;;;;;;;8.07;6.03;;;;;;;26.17;21.40;99112.72;5096686;28;20040;-78
2022/10/12 01:38:19;;;;;;;7.10;5.85;;;;;;;26.34;21.04;99106.84;5108530;28;20024;-78
2022/10/12 01:41:15;;;;;;;11.13;6.80;;;;;;;26.51;21.02;99110.63;5103093;28;20436;-78
2022/10/12 01:43:43;;;;;;;9.00;6.63;;;;;;;26.76;20.26;99111.06;5087323;28;20062;-78
2022/10/12 01:46:15;;;;;;;8.38;6.90;;;;;;;26.57;20.62;99109.72;5110238;28;20034;-78
2022/10/12 01:48:44;;;;;;;9.23;7.07;;;;;;;26.71;20.46;99108.69;5113403;28;20028;-78
2022/10/12 01:51:15;;;;;;;9.45;6.40;;;;;;;26.74;20.30;99113.47;5111031;28;20020;-79
2022/10/12 01:53:54;;;;;;;7.60;6.20;;;;;;;26.63;20.50;99112.81;5111373;28;20487;-78
2022/10/12 01:56:46;;;;;;;9.35;6.40;;;;;;;26.66;20.62;99117.63;5103221;28;20115;-78
2022/10/12 01:59:49;;;;;;;9.68;7.18;;;;;;;27.05;20.23;99111.38;5108235;28;20096;-78
2022/10/12 02:02:33;;;;;;;9.43;6.78;;;;;;;26.86;19.99;99112.91;5118896;28;20031;-78
2022/10/12 02:05:15;;;;;;;11.57;7.03;;;;;;;26.11;20.73;99112.41;5112927;28;20026;-78
2022/10/12 02:07:49;;;;;;;7.68;6.35;;;;;;;26.39;20.74;99109.19;5104248;28;20176;-78
2022/10/12 02:10:26;;;;;;;9.98;6.28;;;;;;;26.57;20.10;99120.97;5104473;28;20438;-78
2022/10/12 02:12:56;;;;;;;8.15;6.45;;;;;;;26.83;19.72;99118.59;5105675;28;20494;-78
2022/10/12 02:15:25;;;;;;;8.40;6.78;;;;;;;26.80;19.54;99116.59;5104195;28;20035;-78
2022/10/12 02:17:52;;;;;;;8.02;6.13;;;;;;;26.84;19.80;99123.78;5110617;28;20444;-79
2022/10/12 02:20:22;;;;;;;9.80;6.10;;;;;;;26.57;19.77;99123.78;5109990;28;20049;-78
2022/10/12 02:22:50;;;;;;;5.78;4.97;;;;;;;26.41;20.17;99120.03;5111884;28;20035;-78
2022/10/12 02:25:20;;;;;;;8.45;6.03;;;;;;;26.60;19.95;99124.97;5109202;28;20100;-78
2022/10/12 02:28:08;;;;;;;8.75;6.57;;;;;;;26.49;19.85;99119.47;5112374;28;20039;-78
2022/10/12 02:30:51;;;;;;;7.90;6.35;;;;;;;26.04;20.42;99118.13;5110290;28;20032;-78
2022/10/12 02:33:31;;;;;;;6.57;4.90;;;;;;;25.88;20.47;99112.31;5106351;28;20039;-78
2022/10/12 02:36:07;;;;;;;8.88;6.40;;;;;;;26.13;20.36;99118.41;5109600;28;20032;-78
2022/10/12 02:38:46;;;;;;;8.18;6.35;;;;;;;26.37;20.15;99114.44;5109974;27;20063;-78
2022/10/12 02:41:18;;;;;;;7.72;5.50;;;;;;;26.52;19.85;99127.09;5110081;28;20040;-78
2022/10/12 02:43:55;;;;;;;7.97;5.55;;;;;;;26.17;19.94;99130.41;5111296;28;20028;-78
2022/10/12 02:46:24;;;;;;;8.05;6.00;;;;;;;26.00;20.30;99134.22;5107482;28;20038;-78
2022/10/12 02:48:53;;;;;;;8.32;5.45;;;;;;;26.26;20.16;99127.88;5108332;28;20032;-78
2022/10/12 02:51:22;;;;;;;6.85;5.47;;;;;;;26.60;19.73;99131.41;5109204;28;20036;-79
2022/10/12 02:53:49;;;;;;;7.97;5.53;;;;;;;26.27;19.80;99125.88;5111817;28;20471;-79
2022/10/12 02:56:16;;;;;;;8.45;6.10;;;;;;;25.95;20.50;99129.09;5111001;27;20043;-78
2022/10/12 02:58:44;;;;;;;6.70;5.40;;;;;;;25.78;20.51;99122.47;5113472;28;20032;-79
2022/10/12 03:01:11;;;;;;;8.45;6.00;;;;;;;25.70;20.53;99120.94;5110348;28;20472;-79
2022/10/12 03:03:38;;;;;;;10.30;7.07;;;;;;;25.58;20.63;99132.72;5112941;28;20078;-78
2022/10/12 03:06:04;;;;;;;7.53;4.90;;;;;;;25.56;20.93;99134.38;5108581;28;20039;-78
2022/10/12 03:08:30;;;;;;;8.68;5.95;;;;;;;25.51;20.87;99137.66;5105366;28;20112;-79
2022/10/12 03:11:07;;;;;;;9.38;6.82;;;;;;;25.38;21.29;99140.16;5109370;28;20035;-79
2022/10/12 03:13:33;;;;;;;5.90;4.80;;;;;;;25.65;20.97;99134.69;5106226;28;20085;-79
2022/10/12 03:16:04;;;;;;;6.30;5.25;;;;;;;25.19;21.18;99138.75;5096316;28;20115;-79
2022/10/12 03:18:31;;;;;;;8.30;5.80;;;;;;;24.51;22.03;99132.06;5113699;28;20027;-79
2022/10/12 03:20:57;;;;;;;7.30;5.53;;;;;;;24.51;22.13;99131.25;5114412;28;20396;-79
2022/10/12 03:23:23;;;;;;;7.28;5.60;;;;;;;24.51;22.20;99123.63;5111672;28;20035;-79
2022/10/12 03:25:49;;;;;;;5.90;4.85;;;;;;;24.27;22.40;99126.63;5108081;28;20436;-79
2022/10/12 03:28:15;;;;;;;6.43;4.88;;;;;;;24.26;22.34;99136.25;5110332;28;20046;-79
2022/10/12 03:30:42;;;;;;;6.65;5.80;;;;;;;24.46;21.95;99132.50;5110026;28;20038;-79
2022/10/12 03:33:09;;;;;;;6.70;4.80;;;;;;;24.83;21.95;99128.25;5104991;28;20036;-79
2022/10/12 03:35:35;;;;;;;7.10;4.97;;;;;;;25.28;20.99;99127.81;5113712;28;20391;-79
2022/10/12 03:38:01;;;;;;;4.95;4.43;;;;;;;25.56;20.79;99134.38;5108315;28;20028;-79
2022/10/12 03:40:27;;;;;;;6.28;4.88;;;;;;;25.52;20.88;99136.44;5099125;28;20107;-79
2022/10/12 03:42:53;;;;;;;5.57;4.40;;;;;;;25.41;20.72;99131.69;5109582;28;20036;-79
2022/10/12 03:45:19;;;;;;;4.75;4.18;;;;;;;25.55;20.85;99133.59;5108108;28;20106;-79
2022/10/12 03:47:46;;;;;;;6.40;4.95;;;;;;;25.73;20.65;99127.75;5109956;27;20063;-79
2022/10/12 03:50:12;;;;;;;6.53;4.80;;;;;;;25.61;20.67;99131.91;5112368;28;20524;-79
2022/10/12 03:52:39;;;;;;;6.05;4.68;;;;;;;25.47;20.92;99131.25;5113060;28;20392;-79
2022/10/12 03:55:05;;;;;;;5.15;4.65;;;;;;;25.71;20.57;99124.56;5099092;28;20097;-79
2022/10/12 03:57:31;;;;;;;6.13;4.65;;;;;;;25.35;20.60;99126.94;5105236;28;20541;-78
2022/10/12 03:59:57;;;;;;;5.22;4.50;;;;;;;24.97;21.01;99120.47;5109500;28;20076;-78
2022/10/12 04:02:23;;;;;;;7.05;5.43;;;;;;;24.90;21.37;99128.97;5101001;28;20513;-78
2022/10/12 04:04:49;;;;;;;6.28;4.70;;;;;;;24.98;21.44;99130.50;5100308;28;20054;-78
2022/10/12 04:07:15;;;;;;;5.63;4.68;;;;;;;25.04;21.12;99125.25;5103781;28;20470;-78
2022/10/12 04:09:41;;;;;;;6.68;4.80;;;;;;;24.95;21.26;99128.53;5104458;28;20110;-78
2022/10/12 04:12:07;;;;;;;6.97;4.82;;;;;;;25.25;21.01;99128.63;5104175;28;20032;-78
2022/10/12 04:14:34;;;;;;;4.43;3.65;;;;;;;25.49;20.75;99128.81;5107327;28;20092;-79
2022/10/12 04:17:00;;;;;;;4.43;3.97;;;;;;;25.66;20.40;99122.22;5101437;28;20038;-78
2022/10/12 04:19:26;;;;;;;5.82;4.00;;;;;;;25.60;20.67;99132.34;5105084;28;20066;-78
2022/10/12 04:21:52;;;;;;;7.20;4.70;;;;;;;25.67;20.28;99130.22;5109999;28;20034;-78
2022/10/12 04:24:18;;;;;;;5.78;5.18;;;;;;;25.39;20.49;99136.94;5110886;28;20069;-78
2022/10/12 04:26:44;;;;;;;5.07;3.88;;;;;;;25.57;20.37;99136.78;5110890;28;20042;-79
2022/10/12 04:29:12;;;;;;;6.15;4.20;;;;;;;26.00;19.91;99139.84;5107890;28;20103;-79
2022/10/12 04:31:39;;;;;;;5.90;3.95;;;;;;;26.31;19.53;99137.84;5106984;28;20119;-79
2022/10/12 04:34:05;;;;;;;5.72;4.32;;;;;;;26.51;18.99;99136.75;5105661;28;20078;-78
2022/10/12 04:36:31;;;;;;;5.03;4.13;;;;;;;26.01;19.68;99144.28;5103005;28;20027;-78
2022/10/12 04:38:57;;;;;;;4.80;4.15;;;;;;;25.65;19.86;99138.28;5105260;28;20437;-78
2022/10/12 04:41:24;;;;;;;6.43;4.38;;;;;;;25.63;20.14;99142.72;5098526;28;20053;-82
2022/10/12 04:43:52;;;;;;;5.22;4.55;;;;;;;25.76;19.52;99132.53;5101916;28;20032;-82
2022/10/12 04:46:18;;;;;;;4.75;4.30;;;;;;;25.88;19.44;99140.44;5112025;28;20063;-81
2022/10/12 04:48:44;;;;;;;4.47;3.63;;;;;;;26.07;19.32;99136.94;5101798;28;20471;-81
2022/10/12 04:51:11;;;;;;;5.80;4.53;;;;;;;26.16;18.96;99133.66;5095705;28;20476;-81
2022/10/12 04:53:37;;;;;;;5.15;3.67;;;;;;;26.22;18.87;99141.22;5114327;28;20035;-81
2022/10/12 04:56:04;;;;;;;5.32;3.95;;;;;;;26.16;18.81;99137.28;5094216;28;20032;-81
2022/10/12 04:58:31;;;;;;;5.40;3.70;;;;;;;25.59;19.29;99139.97;5100169;28;20036;-80
2022/10/12 05:00:57;;;;;;;5.40;4.05;;;;;;;25.30;19.40;99139.44;5113425;28;20034;-81
2022/10/12 05:03:24;;;;;;;4.45;3.65;;;;;;;25.47;19.42;99145.31;5114032;28;20040;-81
2022/10/12 05:05:50;;;;;;;3.63;3.33;;;;;;;25.57;19.38;99147.22;5100756;28;20032;-81
2022/10/12 05:08:17;;;;;;;7.05;5.00;;;;;;;25.24;19.25;99149.53;5095484;28;20036;-81
2022/10/12 05:10:45;;;;;;;6.13;3.80;;;;;;;25.19;19.07;99144.38;5108824;28;20046;-81
2022/10/12 05:13:11;;;;;;;5.40;4.15;;;;;;;25.39;19.09;99141.78;5112665;28;20137;-81
2022/10/12 05:15:37;;;;;;;4.38;3.47;;;;;;;25.46;18.97;99143.75;5113607;28;20387;-81
2022/10/12 05:18:03;;;;;;;4.57;3.80;;;;;;;25.61;18.98;99140.34;5112801;28;20031;-81
2022/10/12 05:20:29;;;;;;;3.20;2.90;;;;;;;25.78;18.61;99146.97;5113998;28;20032;-81
2022/10/12 05:22:58;;;;;;;3.63;3.00;;;;;;;25.91;18.66;99148.81;5100209;28;20032;-81
2022/10/12 05:25:24;;;;;;;3.92;3.30;;;;;;;26.09;18.13;99146.56;5096606;28;20141;-81
2022/10/12 05:27:50;;;;;;;3.47;3.17;;;;;;;26.14;18.53;99141.75;5112481;28;20076;-81
2022/10/12 05:30:17;;;;;;;2.97;2.67;;;;;;;25.86;18.16;99159.72;5113699;28;20061;-81
2022/10/12 05:32:43;;;;;;;2.92;2.72;;;;;;;25.30;18.81;99159.13;5113546;28;20399;-81
2022/10/12 05:35:10;;;;;;;3.20;2.90;;;;;;;25.41;19.00;99154.16;5112563;28;20506;-81
2022/10/12 05:37:36;;;;;;;3.53;3.22;;;;;;;25.62;18.81;99158.03;5113832;28;20383;-81
2022/10/12 05:40:02;;;;;;;4.70;3.67;;;;;;;25.83;18.75;99154.97;5098920;28;20035;-81
2022/10/12 05:42:28;;;;;;;3.50;2.85;;;;;;;26.07;18.88;99163.09;5097388;28;20043;-81
2022/10/12 05:44:54;;;;;;;4.43;3.55;;;;;;;26.36;18.75;99159.91;5113683;28;20101;-81
2022/10/12 05:47:20;;;;;;;3.55;3.05;;;;;;;26.13;19.06;99149.38;5113616;28;20465;-81
2022/10/12 05:49:46;;;;;;;3.63;3.22;;;;;;;26.08;19.01;99150.63;5113374;28;20559;-81
2022/10/12 05:52:12;;;;;;;3.42;3.13;;;;;;;26.30;19.14;99153.94;5113508;28;20398;-81
2022/10/12 05:54:38;;;;;;;4.03;3.20;;;;;;;26.24;19.49;99161.28;5113411;28;20020;-81
2022/10/12 05:57:04;;;;;;;3.85;3.38;;;;;;;26.26;19.36;99143.97;5113626;28;20027;-81
2022/10/12 05:59:30;;;;;;;4.25;3.25;;;;;;;26.04;19.77;99152.66;5117389;28;20038;-81
2022/10/12 06:01:56;;;;;;;4.63;3.97;;;;;;;25.38;20.80;99157.03;5115578;28;20023;-81
2022/10/12 06:04:22;;;;;;;6.78;3.80;;;;;;;25.33;21.05;99158.28;5116369;28;20391;-81
2022/10/12 06:06:49;;;;;;;4.93;4.15;;;;;;;25.52;20.80;99162.53;5117839;28;20024;-82
2022/10/12 06:09:15;;;;;;;5.30;4.05;;;;;;;25.57;20.86;99164.91;5109354;28;20028;-81
2022/10/12 06:11:41;;;;;;;6.38;4.35;;;;;;;25.56;21.62;99162.50;5096828;28;20051;-81
2022/10/12 06:14:07;;;;;;;5.32;3.90;;;;;;;25.87;21.34;99162.16;5097718;28;20396;-81
2022/10/12 06:16:33;;;;;;;6.22;4.30;;;;;;;25.73;21.97;99167.13;5106270;28;20035;-81
2022/10/12 06:18:59;;;;;;;4.70;3.97;;;;;;;25.41;22.30;99171.03;5115598;28;20104;-81
2022/10/12 06:21:25;;;;;;;4.40;4.00;;;;;;;25.09;22.84;99166.94;5113859;28;20495;-81
2022/10/12 06:23:52;;;;;;;6.60;4.60;;;;;;;25.06;22.97;99170.59;5109456;28;20027;-81
2022/10/12 06:26:18;;;;;;;5.32;4.43;;;;;;;25.21;23.07;99172.84;5117104;28;20024;-81
2022/10/12 06:28:44;;;;;;;5.38;3.90;;;;;;;24.98;23.47;99169.84;5117188;28;20118;-81
2022/10/12 06:31:10;;;;;;;4.78;3.60;;;;;;;25.07;23.63;99172.97;5100699;28;20028;-82
2022/10/12 06:33:36;;;;;;;5.85;4.40;;;;;;;25.19;23.17;99169.66;5101575;28;20533;-81
2022/10/12 06:36:02;;;;;;;5.38;4.00;;;;;;;25.57;22.86;99178.16;5116362;28;20074;-81
2022/10/12 06:38:28;;;;;;;5.13;4.13;;;;;;;25.66;22.85;99173.63;5117069;28;20399;-82
2022/10/12 06:40:54;;;;;;;4.18;3.78;;;;;;;26.08;22.74;99173.13;5107465;28;20079;-81
2022/10/12 06:43:23;;;;;;;4.43;3.70;;;;;;;25.84;23.30;99181.88;5110664;28;20040;-81
2022/10/12 06:45:49;;;;;;;6.10;4.30;;;;;;;25.64;23.20;99178.88;5115864;28;20115;-81
2022/10/12 06:48:15;;;;;;;4.75;3.67;;;;;;;25.08;23.95;99176.59;5100051;28;20032;-81
2022/10/12 06:50:41;;;;;;;4.68;4.15;;;;;;;24.43;25.07;99183.88;5100649;28;20414;-81
2022/10/12 06:53:07;;;;;;;4.72;4.32;;;;;;;24.12;25.66;99190.44;5116561;28;20531;-81
2022/10/12 06:55:33;;;;;;;5.63;4.55;;;;;;;24.66;25.03;99178.50;5116719;28;20492;-81
2022/10/12 06:57:59;;;;;;;6.38;4.30;;;;;;;24.88;24.54;99184.78;5116600;28;20463;-81
2022/10/12 07:00:25;;;;;;;6.47;4.53;;;;;;;24.04;25.69;99175.59;5116196;28;20024;-81
2022/10/12 07:02:52;;;;;;;5.82;4.68;;;;;;;24.31;25.64;99186.34;5116400;28;20513;-81
2022/10/12 07:05:19;;;;;;;4.60;3.58;;;;;;;25.09;24.88;99178.97;5114331;28;20475;-81
2022/10/12 07:07:45;;;;;;;4.50;4.05;;;;;;;24.59;25.79;99181.34;5113619;28;20034;-81
2022/10/12 07:10:11;;;;;;;5.07;3.80;;;;;;;25.22;24.84;99179.28;5116320;28;20116;-82
2022/10/12 07:12:38;;;;;;;4.57;4.05;;;;;;;26.24;23.52;99171.75;5116317;28;20089;-81
2022/10/12 07:15:05;;;;;;;7.07;4.93;;;;;;;25.24;24.88;99180.47;5115950;28;20540;-81
2022/10/12 07:17:31;;;;;;;6.32;4.82;;;;;;;24.12;26.89;99181.22;5116400;28;20107;-81
2022/10/12 07:19:57;;;;;;;5.22;4.72;;;;;;;23.81;27.29;99177.28;5116163;28;20027;-81
2022/10/12 07:22:23;;;;;;;4.38;3.97;;;;;;;25.41;25.63;99176.66;5099788;28;20130;-81
2022/10/12 07:24:49;;;;;;;4.38;3.97;;;;;;;26.62;23.50;99176.84;5115057;28;20031;-81
2022/10/12 07:27:15;;;;;;;6.20;4.53;;;;;;;27.15;23.13;99183.66;5116053;28;20039;-81
2022/10/12 07:29:41;;;;;;;5.15;3.97;;;;;;;27.48;22.95;99179.88;5116067;28;20037;-82
2022/10/12 07:32:07;;;;;;;5.50;3.90;;;;;;;26.87;23.56;99178.50;5115659;28;20047;-82
2022/10/12 07:34:34;;;;;;;4.32;3.90;;;;;;;26.69;24.40;99179.56;5115876;27;20080;-82
2022/10/12 07:37:00;;;;;;;4.55;4.10;;;;;;;26.77;24.03;99185.13;5097808;28;20387;-82
2022/10/12 07:39:27;;;;;;;5.25;3.50;;;;;;;27.42;22.96;99180.81;5103447;28;20038;-82
2022/10/12 07:41:53;;;;;;;4.05;3.65;;;;;;;27.02;23.31;99179.88;5115306;28;20031;-82
2022/10/12 07:44:21;;;;;;;5.20;3.83;;;;;;;27.24;24.00;99178.28;5116061;28;20379;-82
2022/10/12 07:46:47;;;;;;;5.47;3.70;;;;;;;28.02;22.83;99172.00;5115604;28;20027;-82
2022/10/12 07:49:14;;;;;;;3.88;2.95;;;;;;;28.61;22.28;99169.13;5114384;28;20451;-81
2022/10/12 07:51:41;;;;;;;7.38;2.88;;;;;;;28.94;21.44;99167.91;5115465;28;20036;-82
2022/10/12 07:54:08;;;;;;;4.25;3.85;;;;;;;28.05;22.41;99171.91;5114471;28;20023;-82
2022/10/12 07:56:34;;;;;;;4.57;3.28;;;;;;;28.37;22.65;99174.06;5095445;28;20064;-81
2022/10/12 07:59:00;;;;;;;5.88;3.45;;;;;;;28.39;22.35;99163.13;5103119;28;20040;-82
2022/10/12 08:01:29;;;;;;;5.38;3.78;;;;;;;28.14;22.33;99164.91;5110863;28;20023;-82
2022/10/12 08:03:56;;;;;;;3.15;2.85;;;;;;;28.37;22.51;99150.66;5114581;28;20039;-82
2022/10/12 08:06:25;;;;;;;3.92;3.53;;;;;;;27.83;23.75;99162.28;5115221;28;20024;-82
2022/10/12 08:08:51;;;;;;;3.25;2.95;;;;;;;27.89;23.46;99160.53;5115316;28;20403;-82
2022/10/12 08:11:18;;;;;;;5.40;3.20;;;;;;;28.63;22.63;99158.97;5114477;28;20027;-82
2022/10/12 08:13:45;;;;;;;6.10;3.60;;;;;;;29.05;21.96;99154.31;5094867;28;20032;-82
2022/10/12 08:16:14;;;;;;;6.25;4.15;;;;;;;27.66;23.97;99159.78;5104688;28;20543;-82
2022/10/12 08:18:40;;;;;;;3.95;3.55;;;;;;;27.29;24.63;99163.69;5113741;28;20073;-82
2022/10/12 08:21:08;;;;;;;5.97;3.58;;;;;;;26.94;24.96;99158.66;5114121;28;20489;-82
2022/10/12 08:23:35;;;;;;;5.20;3.80;;;;;;;27.63;24.08;99157.84;5105430;28;20026;-82
2022/10/12 08:26:02;;;;;;;3.83;3.13;;;;;;;27.96;23.96;99162.41;5094347;28;20028;-82
2022/10/12 08:28:28;;;;;;;4.40;3.17;;;;;;;28.27;23.62;99155.31;5095830;28;20043;-82
2022/10/12 08:30:54;;;;;;;5.80;3.60;;;;;;;28.70;22.88;99161.63;5114948;28;20026;-82
2022/10/12 08:33:20;;;;;;;4.85;4.03;;;;;;;29.08;22.35;99156.25;5114511;28;20054;-82
2022/10/12 08:35:46;;;;;;;3.28;2.97;;;;;;;29.28;22.19;99159.81;5113548;28;20031;-82
2022/10/12 08:38:14;;;;;;;7.88;4.43;;;;;;;28.72;23.29;99156.34;5114717;28;20080;-83
2022/10/12 08:40:58;;;;;;;4.43;3.33;;;;;;;29.32;22.60;99156.88;5096732;28;20116;-82
2022/10/12 08:43:37;;;;;;;4.85;3.45;;;;;;;29.17;23.11;99144.31;5094329;28;20035;-82
2022/10/12 08:46:04;;;;;;;4.32;3.58;;;;;;;29.27;22.69;99155.38;5095019;28;20111;-83
2022/10/12 08:48:39;;;;;;;5.85;3.80;;;;;;;29.68;22.19;99148.22;5095244;28;20035;-82
2022/10/12 08:51:13;;;;;;;4.30;3.60;;;;;;;29.14;23.83;99150.84;5113554;28;20023;-82
2022/10/12 08:54:11;;;;;;;4.72;3.25;;;;;;;29.74;22.95;99154.91;5113248;28;20031;-82
2022/10/12 08:56:39;;;;;;;3.72;2.90;;;;;;;30.19;22.46;99144.31;5114533;28;20027;-82
2022/10/12 08:59:08;;;;;;;3.97;3.22;;;;;;;30.68;21.84;99147.69;5114111;28;20550;-82
2022/10/12 09:01:36;;;;;;;5.90;2.65;;;;;;;31.06;20.79;99148.47;5114402;28;20032;-82
2022/10/12 09:04:31;;;;;;;4.05;2.95;;;;;;;30.01;21.75;99152.56;5107537;28;20118;-82
2022/10/12 09:07:17;;;;;;;4.22;3.17;;;;;;;29.26;22.08;99145.31;5113855;28;20070;-82
2022/10/12 09:10:17;;;;;;;4.50;2.90;;;;;;;29.37;22.48;99156.34;5098166;28;20027;-82
2022/10/12 09:12:55;;;;;;;4.10;3.05;;;;;;;29.00;23.36;99157.66;5106439;28;20111;-82
2022/10/12 09:15:35;;;;;;;3.20;2.42;;;;;;;29.97;22.52;99160.34;5114079;28;20118;-82
2022/10/12 09:18:09;;;;;;;5.70;4.93;;;;;;;27.08;26.85;99156.41;5112961;28;20036;-82
2022/10/12 09:20:47;;;;;;;8.45;6.45;;;;;;;24.50;29.90;99157.75;5102740;27;20694;-81
2022/10/12 09:23:23;;;;;;;9.25;6.32;;;;;;;23.97;31.49;99153.19;5111618;28;20032;-82
2022/10/12 09:25:49;;;;;;;7.32;5.90;;;;;;;24.31;30.88;99161.06;5113972;28;20031;-82
2022/10/12 09:28:33;;;;;;;8.70;6.45;;;;;;;24.45;30.21;99161.00;5113952;28;20062;-82
2022/10/12 09:31:26;;;;;;;6.65;4.90;;;;;;;26.12;27.15;99149.78;5113413;28;20031;-82
2022/10/12 09:33:58;;;;;;;6.05;5.28;;;;;;;25.02;29.27;99152.97;5112593;28;20138;-82
2022/10/12 09:36:31;;;;;;;10.02;6.43;;;;;;;24.31;30.61;99161.06;5104133;28;20036;-83
2022/10/12 09:39:00;;;;;;;9.60;7.28;;;;;;;24.22;30.87;99161.53;5112062;28;20093;-82
2022/10/12 09:41:34;;;;;;;7.57;5.18;;;;;;;26.29;27.84;99154.38;5110606;28;20084;-82
2022/10/12 09:44:02;;;;;;;8.55;6.93;;;;;;;25.03;29.50;99149.75;5103167;28;20391;-82
2022/10/12 09:46:54;;;;;;;7.55;4.32;;;;;;;28.07;25.30;99157.38;5092854;28;20032;-83
2022/10/12 09:49:20;;;;;;;6.50;4.13;;;;;;;28.49;24.64;99142.31;5096993;28;20076;-79
2022/10/12 09:51:47;;;;;;;6.50;4.50;;;;;;;27.62;26.24;99154.22;5113680;28;20038;-82
2022/10/12 09:54:18;;;;;;;8.30;5.93;;;;;;;27.23;26.96;99154.13;5111571;28;20035;-83
2022/10/12 09:56:51;;;;;;;8.35;6.47;;;;;;;27.01;27.47;99153.69;5112771;28;20036;-83
2022/10/12 09:59:35;;;;;;;6.80;5.57;;;;;;;25.29;28.29;99153.91;5109583;28;20043;-83
2022/10/12 10:02:10;;;;;;;5.80;4.45;;;;;;;26.01;29.16;99149.91;5105615;28;20032;-82
2022/10/12 10:04:38;;;;;;;6.85;3.97;;;;;;;24.93;29.39;99144.19;5102878;28;20044;-80
2022/10/12 10:07:26;;;;;;;3.30;1.95;;;;;;;25.52;26.44;99144.88;5113234;28;20038;-80
2022/10/12 10:10:16;;;;;;;3.92;2.15;;;;;;;26.46;22.86;99148.53;5097048;28;20513;-79
2022/10/12 10:12:57;;;;;;;4.10;1.73;;;;;;;26.83;24.30;99149.59;5095266;28;20495;-79
2022/10/12 10:15:23;;;;;;;3.78;1.55;;;;;;;25.33;25.23;99146.25;5111988;28;20036;-80
2022/10/12 10:17:53;;;;;;;2.58;1.20;;;;;;;24.47;26.93;99136.91;5098229;28;20032;-79
2022/10/12 10:20:39;;;;;;;3.38;1.42;;;;;;;24.89;25.80;99135.81;5096638;28;20059;-80
2022/10/12 10:23:05;;;;;;;2.35;1.00;;;;;;;26.84;24.08;99137.09;5111649;28;20024;-79
2022/10/12 10:25:33;;;;;;;1.77;0.80;;;;;;;28.61;21.38;99126.75;5093543;28;20379;-80
2022/10/12 10:28:23;;;;;;;2.20;0.80;;;;;;;25.15;23.89;99132.38;5096576;28;20032;-80
2022/10/12 10:31:01;;;;;;;5.28;0.93;;;;;;;25.11;22.94;99128.00;5110531;28;20036;-81
2022/10/12 10:33:32;;;;;;;3.30;1.00;;;;;;;24.68;26.63;99131.13;5112041;28;20085;-82
2022/10/12 10:36:14;;;;;;;2.50;1.05;;;;;;;25.72;24.80;99126.94;5109835;28;20911;-82
2022/10/12 10:39:14;;;;;;;1.65;0.70;;;;;;;24.94;22.51;99126.13;5102435;28;20040;-81
2022/10/12 10:41:42;;;;;;;2.00;0.60;;;;;;;27.28;22.14;99114.16;5094953;28;20108;-81
2022/10/12 10:44:35;;;;;;;3.28;0.80;;;;;;;26.20;23.02;99120.34;5116964;27;20337;-81
2022/10/12 10:47:12;;;;;;;2.30;0.80;;;;;;;24.29;23.48;99119.38;5103373;28;20046;-80
2022/10/12 10:49:41;;;;;;;3.95;1.00;;;;;;;24.30;27.07;99120.16;5116640;28;20027;-81
2022/10/12 10:52:20;;;;;;;1.75;0.80;;;;;;;23.96;27.02;99125.56;5115894;28;20111;-80
2022/10/12 10:54:48;;;;;;;1.88;1.02;;;;;;;27.49;23.63;99121.44;5116790;28;20032;-80
2022/10/12 10:57:20;;;;;;;2.45;0.80;;;;;;;28.45;21.66;99112.56;5107980;28;20032;-81
2022/10/12 10:59:56;;;;;;;1.60;0.90;;;;;;;26.82;21.18;99111.34;5134837;27;20036;-80
2022/10/12 11:02:46;;;;;;;5.85;1.85;;;;;;;27.61;21.89;99118.75;5119284;27;20031;-80
2022/10/12 11:05:34;;;;;;;2.13;1.10;;;;;;;28.57;20.32;99114.66;5116400;28;20035;-80
2022/10/12 11:08:20;;;;;;;1.45;0.80;;;;;;;29.46;20.40;99113.25;5112146;28;20027;-80
2022/10/12 11:11:01;;;;;;;0.88;0.70;;;;;;;29.11;20.68;99110.09;5114460;28;20479;-81
2022/10/12 11:13:30;;;;;;;;;;;;;;;27.06;19.91;99118.59;5100842;28;20102;-81
2022/10/12 11:15:58;;;;;;;4.65;0.90;;;;;;;28.05;21.20;99106.97;5095065;28;19931;-81
2022/10/12 11:18:38;;;;;;;4.15;1.20;;;;;;;26.43;21.33;99111.94;5109339;28;20043;-80
2022/10/12 11:21:21;;;;;;;3.78;1.40;;;;;;;25.13;24.64;99115.13;5111905;27;20039;-80
2022/10/12 11:23:51;;;;;;;3.20;1.13;;;;;;;25.83;23.58;99107.13;5119636;27;20483;-80
2022/10/12 11:26:28;;;;;;;2.33;1.10;;;;;;;25.03;25.21;99112.41;5115266;28;20054;-80
2022/10/12 11:28:58;;;;;;;3.00;1.20;;;;;;;24.94;27.05;99104.47;5108262;28;20480;-81
2022/10/12 11:31:35;;;;;;;1.60;1.23;;;;;;;25.82;24.18;99097.88;5102582;28;20031;-81
2022/10/12 11:34:07;;;;;;;3.03;1.40;;;;;;;27.29;23.21;99105.25;5116060;28;20564;-81
2022/10/12 11:36:38;;;;;;;1.45;0.90;;;;;;;27.57;21.26;99109.59;5104824;28;20533;-81
2022/10/12 11:39:17;;;;;;;2.78;1.45;;;;;;;27.93;22.57;99104.00;5096033;28;20028;-82
2022/10/12 11:41:48;;;;;;;2.08;1.33;;;;;;;29.25;21.44;99094.81;5110139;28;20122;-80
2022/10/12 11:44:38;;;;;;;2.53;1.30;;;;;;;27.93;21.50;99102.00;5114075;28;20027;-80
2022/10/12 11:47:25;;;;;;;6.40;2.03;;;;;;;26.05;25.78;99100.78;5110063;28;20479;-80